Time;durP1;ratioP1;P1;durP2;ratioP2;P2;SDS_P1;SDS_P2;PMS_P1;PMS_P2;Temp;Humidity;BMP_temperature;BMP_pressure;BME280_temperature;BME280_humidity;BME280_pressure;Samples;Min_cycle;Max_cycle;Signal;HPM_P1;HPM_P2
2022/07/08 00:00:35;;;;;;;9.45;2.10;;;;;;;15.44;55.27;100059.50;2618160;54;20545;-71
2022/07/08 00:03:05;;;;;;;11.63;2.45;;;;;;;15.39;55.27;100072.56;2618093;54;20058;-71
2022/07/08 00:05:35;;;;;;;8.43;2.00;;;;;;;15.38;55.51;100071.75;2618073;54;20561;-71
2022/07/08 00:08:05;;;;;;;6.80;1.60;;;;;;;15.41;55.32;100075.88;2617500;47;20073;-71
2022/07/08 00:10:35;;;;;;;9.30;2.00;;;;;;;15.41;55.37;100081.22;2617844;54;20597;-70
2022/07/08 00:13:07;;;;;;;7.25;1.90;;;;;;;15.48;55.62;100076.78;2618282;54;20561;-71
2022/07/08 00:15:37;;;;;;;8.60;2.50;;;;;;;15.57;55.18;100081.75;2618591;47;20027;-70
2022/07/08 00:18:06;;;;;;;8.23;2.15;;;;;;;15.58;55.13;100082.56;2623665;54;20030;-71
2022/07/08 00:20:36;;;;;;;8.77;2.20;;;;;;;15.58;54.82;100079.91;2622921;51;20558;-71
2022/07/08 00:23:05;;;;;;;9.40;1.90;;;;;;;15.60;55.08;100081.38;2623458;47;20038;-71
2022/07/08 00:25:35;;;;;;;7.40;1.98;;;;;;;15.57;55.11;100073.75;2624385;54;20027;-72
2022/07/08 00:28:07;;;;;;;5.40;1.40;;;;;;;15.51;55.08;100082.53;2624494;54;20053;-71
2022/07/08 00:30:37;;;;;;;7.60;1.85;;;;;;;15.55;55.37;100083.81;2623381;54;20042;-71
2022/07/08 00:33:06;;;;;;;7.88;2.17;;;;;;;15.47;55.23;100085.75;2623957;54;20046;-71
2022/07/08 00:35:36;;;;;;;8.57;1.98;;;;;;;15.48;55.49;100082.09;2626383;54;20035;-74
2022/07/08 00:38:05;;;;;;;9.23;2.05;;;;;;;15.48;55.41;100087.44;2627074;54;20023;-72
2022/07/08 00:40:35;;;;;;;11.07;2.63;;;;;;;15.44;55.54;100094.16;2625951;54;20033;-72
2022/07/08 00:43:07;;;;;;;7.63;1.83;;;;;;;15.41;55.40;100099.88;2625621;54;20050;-70
2022/07/08 00:45:37;;;;;;;9.93;2.28;;;;;;;15.45;55.40;100096.63;2625932;47;20029;-71
2022/07/08 00:48:07;;;;;;;6.93;2.30;;;;;;;15.55;55.22;100096.28;2626811;54;20039;-71
2022/07/08 00:50:36;;;;;;;8.32;2.13;;;;;;;15.48;55.39;100087.44;2626759;54;20031;-71
2022/07/08 00:53:06;;;;;;;13.32;2.67;;;;;;;15.52;55.64;100094.84;2626528;47;20027;-71
2022/07/08 00:55:36;;;;;;;8.40;2.65;;;;;;;15.51;55.31;100092.34;2626493;54;20034;-71
2022/07/08 00:58:08;;;;;;;10.40;2.55;;;;;;;15.51;55.24;100097.69;2627411;54;20030;-71
2022/07/08 01:00:39;;;;;;;9.93;2.33;;;;;;;15.43;55.91;100093.34;2627022;54;20026;-70
2022/07/08 01:03:08;;;;;;;8.48;1.92;;;;;;;15.47;55.98;100102.59;2626759;47;20022;-71
2022/07/08 01:05:38;;;;;;;12.02;2.92;;;;;;;15.47;55.82;100096.41;2626366;54;20030;-72
2022/07/08 01:08:08;;;;;;;5.90;2.05;;;;;;;15.46;55.54;100094.78;2623651;54;20030;-71
2022/07/08 01:10:38;;;;;;;9.93;1.88;;;;;;;15.54;55.38;100089.31;2625456;54;20053;-71
2022/07/08 01:13:10;;;;;;;6.72;1.90;;;;;;;15.58;55.46;100095.91;2626625;54;20033;-71
2022/07/08 01:15:40;;;;;;;8.07;2.22;;;;;;;15.61;55.14;100095.50;2626666;54;20030;-71
2022/07/08 01:18:10;;;;;;;6.70;1.92;;;;;;;15.59;55.48;100101.06;2627438;54;20034;-72
2022/07/08 01:20:48;;;;;;;11.00;2.03;;;;;;;15.61;55.64;100099.00;2626840;54;20145;-71
2022/07/08 01:23:17;;;;;;;7.82;1.92;;;;;;;15.46;55.94;100089.44;2626898;54;20034;-70
2022/07/08 01:25:48;;;;;;;6.45;1.85;;;;;;;15.39;56.06;100094.75;2626579;54;20041;-71
2022/07/08 01:28:18;;;;;;;6.28;2.38;;;;;;;15.43;55.86;100085.34;2626318;54;20034;-70
2022/07/08 01:30:48;;;;;;;7.20;2.22;;;;;;;15.45;56.15;100087.81;2627308;54;20033;-72
2022/07/08 01:33:18;;;;;;;9.95;2.13;;;;;;;15.36;56.13;100092.44;2626944;54;20046;-70
2022/07/08 01:35:50;;;;;;;5.53;2.22;;;;;;;15.28;55.97;100096.06;2627212;54;20034;-72
2022/07/08 01:38:19;;;;;;;5.90;2.05;;;;;;;15.31;56.39;100089.53;2623310;54;20034;-71
2022/07/08 01:40:50;;;;;;;8.80;2.30;;;;;;;15.27;56.14;100094.44;2621284;54;20033;-73
2022/07/08 01:43:20;;;;;;;6.90;2.20;;;;;;;15.24;56.36;100086.81;2621574;54;20061;-71
2022/07/08 01:45:50;;;;;;;8.20;2.15;;;;;;;15.17;56.70;100085.09;2621032;54;20046;-70
2022/07/08 01:48:20;;;;;;;7.60;2.30;;;;;;;15.20;56.38;100082.88;2620961;54;20038;-72
2022/07/08 01:50:52;;;;;;;6.10;2.15;;;;;;;15.17;56.33;100085.91;2620909;54;20045;-71
2022/07/08 01:53:22;;;;;;;16.25;2.28;;;;;;;15.12;56.53;100093.66;2622781;39;20437;-72
2022/07/08 01:55:52;;;;;;;7.15;1.83;;;;;;;15.09;56.57;100102.84;2627631;39;20720;-71
2022/07/08 01:58:21;;;;;;;7.68;2.15;;;;;;;15.10;56.98;100109.84;2625399;54;20026;-71
2022/07/08 02:00:51;;;;;;;10.35;3.08;;;;;;;15.09;56.68;100110.84;2623561;54;20033;-71
2022/07/08 02:03:21;;;;;;;8.20;2.60;;;;;;;15.06;57.02;100113.06;2622275;54;20057;-71
2022/07/08 02:05:53;;;;;;;8.85;2.20;;;;;;;14.96;56.99;100116.03;2620961;54;20034;-71
2022/07/08 02:08:23;;;;;;;7.93;2.53;;;;;;;14.89;57.17;100114.31;2620664;54;20058;-71
2022/07/08 02:13:35;;;;;;;7.45;2.75;;;;;;;14.75;57.55;100114.19;2620386;54;20031;-71
2022/07/08 02:16:05;;;;;;;6.68;2.05;;;;;;;14.69;57.76;100111.44;2618428;54;20038;-71
2022/07/08 02:18:35;;;;;;;7.85;2.60;;;;;;;14.65;57.89;100118.97;2618106;54;20159;-71
2022/07/08 02:21:07;;;;;;;8.60;3.20;;;;;;;14.65;58.27;100107.50;2618139;54;20038;-71
2022/07/08 02:23:37;;;;;;;8.73;2.42;;;;;;;14.64;58.02;100114.66;2618344;31;20535;-71
2022/07/08 02:26:06;;;;;;;8.18;2.38;;;;;;;14.68;58.30;100118.59;2618157;54;20055;-72
2022/07/08 02:28:36;;;;;;;6.28;2.17;;;;;;;14.63;58.47;100120.19;2618199;54;20037;-71
2022/07/08 02:31:06;;;;;;;8.98;2.25;;;;;;;14.57;58.58;100125.25;2618122;54;20030;-71
2022/07/08 02:33:36;;;;;;;11.60;2.42;;;;;;;14.52;58.55;100124.94;2618219;54;20041;-72
2022/07/08 02:36:09;;;;;;;7.70;2.08;;;;;;;14.50;58.53;100121.66;2621038;54;20041;-71
2022/07/08 02:38:38;;;;;;;7.10;3.00;;;;;;;14.52;58.50;100110.81;2625107;54;20026;-72
2022/07/08 02:41:08;;;;;;;4.85;2.10;;;;;;;14.50;58.92;100121.66;2625000;54;20034;-72
2022/07/08 02:43:37;;;;;;;5.88;2.20;;;;;;;14.48;59.06;100112.19;2626021;54;20598;-71
2022/07/08 02:46:07;;;;;;;6.45;1.95;;;;;;;14.44;58.86;100118.88;2625354;54;20026;-71
2022/07/08 02:48:37;;;;;;;10.60;2.35;;;;;;;14.41;59.30;100119.25;2618343;54;20022;-71
2022/07/08 02:51:09;;;;;;;9.60;2.08;;;;;;;14.43;59.46;100125.22;2617901;54;20047;-71
2022/07/08 02:53:39;;;;;;;8.07;2.70;;;;;;;14.42;59.38;100116.41;2616802;46;20026;-71
2022/07/08 02:56:09;;;;;;;10.00;2.75;;;;;;;14.44;59.53;100119.69;2616599;54;20046;-71
2022/07/08 02:58:39;;;;;;;8.18;2.60;;;;;;;14.46;59.22;100120.34;2616582;54;20089;-71
2022/07/08 03:01:08;;;;;;;9.88;2.63;;;;;;;14.43;58.93;100115.41;2616642;54;20030;-71
2022/07/08 03:03:38;;;;;;;10.32;2.75;;;;;;;14.41;59.13;100109.44;2616842;47;20546;-71
2022/07/08 03:06:10;;;;;;;5.90;2.47;;;;;;;14.37;59.46;100111.66;2616617;54;20038;-71
2022/07/08 03:08:39;;;;;;;5.32;2.20;;;;;;;14.23;59.67;100111.66;2617421;39;20505;-70
2022/07/08 03:11:10;;;;;;;7.13;2.30;;;;;;;14.10;60.14;100112.31;2616494;54;20035;-70
2022/07/08 03:13:40;;;;;;;6.95;2.70;;;;;;;14.13;60.12;100119.91;2617125;39;20732;-70
2022/07/08 03:16:10;;;;;;;9.75;2.38;;;;;;;14.11;60.34;100117.44;2617058;39;20474;-70
2022/07/08 03:18:39;;;;;;;9.48;2.55;;;;;;;14.06;60.34;100126.97;2616546;54;20022;-70
2022/07/08 03:21:12;;;;;;;5.88;3.00;;;;;;;13.99;60.68;100128.69;2616511;54;20031;-71
2022/07/08 03:23:42;;;;;;;10.10;2.60;;;;;;;13.92;60.77;100131.28;2616981;54;20542;-70
2022/07/08 03:26:11;;;;;;;7.68;2.53;;;;;;;13.95;60.50;100135.38;2618306;54;20030;-70
2022/07/08 03:28:41;;;;;;;8.75;2.17;;;;;;;13.87;60.85;100133.63;2618209;54;20034;-71
2022/07/08 03:31:10;;;;;;;7.43;2.35;;;;;;;13.82;61.00;100138.69;2621168;54;20069;-71
2022/07/08 03:33:40;;;;;;;8.88;2.70;;;;;;;13.80;60.87;100149.50;2623131;54;20030;-70
2022/07/08 03:36:12;;;;;;;4.78;2.42;;;;;;;13.83;60.98;100146.47;2623427;54;20031;-71
2022/07/08 03:38:42;;;;;;;7.72;2.45;;;;;;;13.79;61.19;100145.16;2622986;54;20034;-71
2022/07/08 03:41:23;;;;;;;11.65;2.47;;;;;;;13.76;61.05;100144.72;2622760;54;20029;-71
2022/07/08 03:43:54;;;;;;;9.77;3.35;;;;;;;13.73;61.01;100145.91;2622914;54;20074;-71
2022/07/08 03:46:24;;;;;;;7.93;2.75;;;;;;;13.75;61.38;100145.72;2620830;54;20039;-71
2022/07/08 03:48:54;;;;;;;9.38;2.70;;;;;;;13.81;61.51;100147.66;2622232;54;20026;-71
2022/07/08 03:51:26;;;;;;;10.43;3.25;;;;;;;13.73;61.28;100147.75;2621237;47;20034;-71
2022/07/08 03:53:56;;;;;;;6.65;2.55;;;;;;;13.68;61.38;100158.09;2618960;39;20434;-71
2022/07/08 03:56:25;;;;;;;8.98;2.90;;;;;;;13.60;61.76;100154.50;2619341;54;20060;-71
2022/07/08 03:58:55;;;;;;;9.05;2.63;;;;;;;13.60;62.32;100164.28;2618387;54;20033;-71
2022/07/08 04:01:24;;;;;;;8.38;2.67;;;;;;;13.64;62.22;100165.59;2592297;39;21368;-71
2022/07/08 04:03:54;;;;;;;11.23;3.33;;;;;;;13.75;61.82;100172.28;2617074;54;20038;-70
2022/07/08 06:13:41;;;;;;;8.18;2.83;;;;;;;15.45;58.39;100258.34;2570063;54;20621;-69
2022/07/08 06:16:14;;;;;;;9.48;2.83;;;;;;;15.47;58.44;100265.16;2622276;54;20081;-71
2022/07/08 06:18:43;;;;;;;10.38;2.97;;;;;;;15.50;57.81;100267.41;2622099;47;20042;-71
2022/07/08 06:21:13;;;;;;;9.68;2.50;;;;;;;15.50;57.97;100269.25;2622623;54;20027;-71
2022/07/08 06:23:43;;;;;;;6.38;2.10;;;;;;;15.61;57.77;100269.59;2622538;54;20031;-70
2022/07/08 06:26:13;;;;;;;5.28;2.40;;;;;;;15.74;57.82;100271.59;2622804;39;20426;-71
2022/07/08 06:28:45;;;;;;;11.60;4.15;;;;;;;15.82;57.53;100266.13;2623625;39;20415;-71
2022/07/08 06:31:15;;;;;;;8.85;2.20;;;;;;;15.85;57.06;100264.94;2622150;54;20033;-70
2022/07/08 06:33:44;;;;;;;7.93;2.47;;;;;;;15.96;56.82;100266.25;2622887;54;20033;-71
2022/07/08 06:36:17;;;;;;;8.98;2.92;;;;;;;16.19;56.65;100269.53;2623329;54;20022;-70
2022/07/08 06:38:47;;;;;;;10.23;2.92;;;;;;;16.50;55.83;100254.97;2622349;54;20040;-71
2022/07/08 06:41:17;;;;;;;8.77;2.75;;;;;;;16.56;55.07;100267.53;2622320;54;20069;-72
2022/07/08 06:43:49;;;;;;;7.32;3.33;;;;;;;16.47;55.40;100263.38;2620265;54;20042;-72
2022/07/08 06:46:19;;;;;;;12.95;3.08;;;;;;;16.52;55.14;100263.59;2618124;54;20057;-70
2022/07/08 06:48:49;;;;;;;7.95;2.53;;;;;;;16.53;54.75;100265.25;2618160;54;20033;-71
2022/07/08 06:51:19;;;;;;;8.60;2.25;;;;;;;16.60;54.62;100268.78;2618160;54;20038;-71
2022/07/08 06:56:30;;;;;;;10.02;2.30;;;;;;;16.95;54.26;100263.47;2618521;54;20071;-71
2022/07/08 06:59:04;;;;;;;7.85;3.05;;;;;;;17.18;53.64;100273.81;2617696;54;20030;-71
2022/07/08 07:01:33;;;;;;;7.97;2.42;;;;;;;17.17;53.13;100274.84;2617750;47;20022;-71
2022/07/08 07:04:04;;;;;;;7.35;2.30;;;;;;;17.21;52.25;100271.59;2617637;47;20061;-72
2022/07/08 07:06:33;;;;;;;6.00;1.75;;;;;;;17.19;50.71;100278.16;2618393;39;20394;-71
2022/07/08 07:09:03;;;;;;;6.22;2.08;;;;;;;17.38;50.33;100271.22;2617953;54;20038;-71
2022/07/08 07:11:32;;;;;;;16.33;2.58;;;;;;;17.43;49.64;100277.63;2618081;54;20033;-71
2022/07/08 07:14:04;;;;;;;6.78;2.00;;;;;;;17.64;49.23;100278.50;2617251;47;20157;-72
2022/07/08 07:16:34;;;;;;;5.40;2.13;;;;;;;17.70;48.10;100275.81;2617631;54;20049;-71
2022/07/08 07:19:04;;;;;;;6.07;1.98;;;;;;;17.71;48.51;100277.47;2617768;47;20032;-70
2022/07/08 07:21:33;;;;;;;6.82;1.85;;;;;;;17.90;46.96;100283.09;2617998;54;20566;-70
2022/07/08 07:24:03;;;;;;;5.60;1.67;;;;;;;17.95;45.79;100272.59;2617804;54;20042;-71
2022/07/08 07:26:33;;;;;;;4.05;1.60;;;;;;;17.99;46.29;100271.97;2618061;54;20542;-71
2022/07/08 07:29:05;;;;;;;4.68;1.65;;;;;;;18.04;46.37;100264.19;2617740;54;20077;-70
2022/07/08 07:31:35;;;;;;;6.55;2.05;;;;;;;18.16;46.27;100272.38;2618077;54;20037;-71
2022/07/08 07:34:05;;;;;;;7.15;1.73;;;;;;;18.27;46.42;100271.78;2617780;54;20159;-71
2022/07/08 07:36:34;;;;;;;6.53;2.35;;;;;;;18.19;46.70;100271.16;2617275;54;20048;-71
2022/07/08 07:39:04;;;;;;;7.10;2.00;;;;;;;18.08;47.11;100272.59;2617843;54;20050;-72
2022/07/08 07:41:34;;;;;;;4.97;2.40;;;;;;;18.05;47.24;100267.69;2618103;54;20579;-72
2022/07/08 07:44:06;;;;;;;6.97;1.92;;;;;;;17.99;47.29;100266.63;2617989;54;20023;-71
2022/07/08 07:46:36;;;;;;;4.38;1.42;;;;;;;18.02;46.94;100268.09;2617842;54;20065;-71
2022/07/08 07:49:06;;;;;;;4.97;1.98;;;;;;;18.24;46.62;100269.50;2617756;54;20053;-71
2022/07/08 07:51:35;;;;;;;6.65;1.70;;;;;;;18.41;45.95;100263.72;2618119;54;20538;-71
2022/07/08 07:54:06;;;;;;;5.47;1.40;;;;;;;18.42;45.88;100262.72;2617990;54;20057;-71
2022/07/08 07:56:36;;;;;;;6.88;1.50;;;;;;;18.50;45.52;100263.31;2618062;54;20034;-71
2022/07/08 07:59:08;;;;;;;3.03;1.50;;;;;;;18.57;45.34;100263.28;2617299;47;20039;-70
2022/07/08 08:01:37;;;;;;;5.15;2.42;;;;;;;18.36;45.41;100253.66;2617132;54;20053;-70
2022/07/08 08:04:07;;;;;;;7.28;2.40;;;;;;;18.20;44.99;100254.06;2617408;54;20065;-70
2022/07/08 08:06:36;;;;;;;6.15;1.58;;;;;;;18.02;45.48;100260.06;2617030;39;20409;-70
2022/07/08 08:09:06;;;;;;;4.65;1.95;;;;;;;18.10;45.95;100257.19;2617025;54;20034;-70
2022/07/08 08:11:36;;;;;;;7.20;2.60;;;;;;;18.24;45.95;100261.47;2617653;54;20030;-71
2022/07/08 08:14:09;;;;;;;8.20;1.83;;;;;;;18.31;45.29;100267.66;2617750;54;20593;-71
2022/07/08 08:16:38;;;;;;;5.45;2.10;;;;;;;18.49;45.11;100266.19;2617297;47;20037;-70
2022/07/08 08:19:08;;;;;;;8.52;2.53;;;;;;;18.61;44.77;100261.84;2618595;54;20088;-70
2022/07/08 08:21:38;;;;;;;5.40;2.10;;;;;;;18.72;44.58;100263.91;2618436;54;20027;-69
2022/07/08 08:24:08;;;;;;;10.05;4.35;;;;;;;18.80;44.71;100257.50;2618593;54;20090;-69
2022/07/08 08:26:37;;;;;;;10.27;2.40;;;;;;;18.85;43.79;100267.59;2618093;47;20034;-70
2022/07/08 08:29:10;;;;;;;5.90;2.35;;;;;;;18.63;43.60;100269.69;2618653;39;20433;-70
2022/07/08 08:31:39;;;;;;;7.90;2.20;;;;;;;18.48;44.37;100264.53;2618644;54;20042;-70
2022/07/08 08:34:09;;;;;;;6.13;1.90;;;;;;;18.39;44.87;100268.47;2618190;54;20047;-70
2022/07/08 08:36:39;;;;;;;5.93;1.60;;;;;;;18.18;44.85;100273.03;2618444;54;20038;-71
2022/07/08 08:39:15;;;;;;;6.85;1.80;;;;;;;18.12;45.52;100273.00;2618158;54;20030;-70
2022/07/08 08:41:45;;;;;;;7.22;1.80;;;;;;;18.14;45.31;100273.66;2618447;54;20026;-70
2022/07/08 08:44:17;;;;;;;7.40;2.33;;;;;;;18.25;45.23;100263.16;2617917;47;20038;-70
2022/07/08 08:46:47;;;;;;;5.20;1.90;;;;;;;18.39;45.02;100260.44;2618415;54;20022;-70
2022/07/08 08:49:19;;;;;;;5.20;1.67;;;;;;;18.51;43.93;100259.59;2618074;54;20042;-70
2022/07/08 08:51:51;;;;;;;5.05;2.03;;;;;;;18.56;44.08;100254.44;2618226;54;20530;-70
2022/07/08 08:54:21;;;;;;;6.85;2.08;;;;;;;18.71;44.41;100248.06;2618272;54;20034;-70
2022/07/08 08:56:52;;;;;;;9.23;1.83;;;;;;;18.82;43.72;100255.44;2618511;54;20043;-71
2022/07/08 08:59:33;;;;;;;5.13;1.80;;;;;;;18.93;43.51;100253.94;2617741;47;20029;-69
2022/07/08 09:02:03;;;;;;;4.40;1.90;;;;;;;18.84;43.36;100252.56;2618947;39;20449;-69
2022/07/08 09:04:33;;;;;;;8.32;2.53;;;;;;;18.74;44.01;100240.44;2618641;54;20074;-69
2022/07/08 09:07:03;;;;;;;4.40;1.58;;;;;;;18.78;43.67;100248.88;2618557;54;20042;-69
2022/07/08 09:09:39;;;;;;;5.93;1.92;;;;;;;18.67;43.78;100246.81;2618275;54;20163;-69
2022/07/08 09:12:23;;;;;;;8.45;1.73;;;;;;;18.78;44.25;100248.88;2618490;54;20065;-69
2022/07/08 09:15:00;;;;;;;8.68;3.00;;;;;;;18.88;43.50;100248.41;2618276;54;20042;-69
2022/07/08 09:17:30;;;;;;;4.22;1.70;;;;;;;18.92;43.29;100252.31;2618077;54;20030;-69
2022/07/08 09:20:01;;;;;;;4.00;1.63;;;;;;;18.86;42.83;100259.34;2618161;54;20054;-69
2022/07/08 09:22:31;;;;;;;4.78;1.92;;;;;;;19.01;43.57;100257.22;2617570;47;20038;-70
2022/07/08 09:25:00;;;;;;;5.03;1.80;;;;;;;19.21;42.82;100259.81;2618130;54;20110;-69
2022/07/08 09:27:31;;;;;;;7.90;1.67;;;;;;;19.35;42.51;100255.22;2618926;31;20454;-70
2022/07/08 09:30:10;;;;;;;4.30;2.10;;;;;;;19.37;42.19;100253.13;2617866;54;20027;-70
2022/07/08 09:32:40;;;;;;;3.75;1.85;;;;;;;19.34;41.99;100261.59;2618182;54;20049;-69
2022/07/08 09:35:14;;;;;;;4.90;1.65;;;;;;;19.41;42.08;100257.03;2618084;54;20046;-70
2022/07/08 09:37:43;;;;;;;7.78;1.77;;;;;;;19.37;41.74;100255.81;2617483;54;20061;-70
2022/07/08 09:40:19;;;;;;;4.97;1.67;;;;;;;19.41;41.45;100253.53;2617957;54;20042;-70
2022/07/08 09:42:53;;;;;;;4.45;1.40;;;;;;;19.30;41.65;100255.03;2618127;54;20089;-70
2022/07/08 09:45:30;;;;;;;5.05;1.60;;;;;;;19.22;41.79;100255.28;2618246;54;20022;-71
2022/07/08 09:48:07;;;;;;;3.50;1.50;;;;;;;19.23;41.63;100252.41;2618463;54;20069;-68
2022/07/08 09:50:39;;;;;;;5.93;1.70;;;;;;;19.31;41.81;100248.66;2617570;54;20030;-69
2022/07/08 09:53:30;;;;;;;6.65;2.50;;;;;;;19.50;40.85;100233.47;2618959;54;20031;-70
2022/07/08 09:56:03;;;;;;;5.10;2.35;;;;;;;19.37;41.27;100238.91;2618812;54;20035;-69
2022/07/08 09:58:35;;;;;;;6.00;1.70;;;;;;;19.50;41.06;100241.50;2618220;54;20037;-71
2022/07/08 10:01:08;;;;;;;3.50;1.20;;;;;;;19.51;41.15;100246.69;2618336;54;20031;-70
2022/07/08 10:03:38;;;;;;;4.32;1.58;;;;;;;19.53;40.68;100252.63;2618494;54;20061;-71
2022/07/08 10:06:08;;;;;;;3.95;1.70;;;;;;;19.59;40.47;100250.13;2618414;54;20218;-70
2022/07/08 10:08:39;;;;;;;6.60;1.65;;;;;;;19.53;40.79;100249.13;2618285;54;20093;-71
2022/07/08 10:11:10;;;;;;;4.70;1.48;;;;;;;19.74;40.26;100246.13;2618365;54;20026;-70
2022/07/08 10:13:41;;;;;;;5.55;2.05;;;;;;;19.96;40.14;100238.53;2618573;54;20050;-71
2022/07/08 10:16:14;;;;;;;4.95;1.30;;;;;;;19.90;40.44;100249.31;2623183;54;20050;-70
2022/07/08 10:18:48;;;;;;;3.60;1.60;;;;;;;19.99;39.11;100243.44;2618945;46;20057;-71
2022/07/08 10:21:28;;;;;;;5.53;1.50;;;;;;;19.93;39.68;100238.16;2625085;54;20038;-69
2022/07/08 10:23:58;;;;;;;2.90;1.10;;;;;;;19.93;40.09;100241.66;2626429;46;20027;-69
2022/07/08 10:26:31;;;;;;;7.72;1.77;;;;;;;19.94;39.97;100229.88;2627120;54;20042;-69
2022/07/08 10:29:06;;;;;;;5.60;1.70;;;;;;;20.10;38.90;100236.56;2626191;54;20038;-69
2022/07/08 10:31:47;;;;;;;3.25;1.63;;;;;;;20.20;39.16;100242.22;2622038;47;20026;-69
2022/07/08 10:34:20;;;;;;;4.60;1.60;;;;;;;20.18;39.40;100238.97;2623048;54;20045;-69
2022/07/08 10:36:51;;;;;;;5.13;1.60;;;;;;;20.40;39.38;100233.16;2625532;54;20034;-69
2022/07/08 10:39:28;;;;;;;4.47;2.15;;;;;;;20.66;38.49;100238.31;2625086;54;20053;-70
2022/07/08 10:42:01;;;;;;;4.65;1.70;;;;;;;20.73;38.72;100241.72;2625836;54;20046;-69
2022/07/08 10:44:55;;;;;;;9.13;2.10;;;;;;;20.59;38.94;100239.44;2625730;54;20038;-70
2022/07/08 10:47:32;;;;;;;3.38;1.90;;;;;;;20.63;38.82;100244.13;2624063;54;20026;-69
2022/07/08 10:50:07;;;;;;;5.22;1.98;;;;;;;20.77;38.43;100236.72;2621763;47;20040;-70
2022/07/08 10:52:41;;;;;;;5.03;1.77;;;;;;;20.98;37.59;100224.69;2621296;54;20026;-69
2022/07/08 10:55:14;;;;;;;2.42;1.55;;;;;;;21.04;37.67;100223.81;2620766;54;20046;-70
2022/07/08 10:57:56;;;;;;;4.10;1.75;;;;;;;21.18;37.94;100229.81;2622400;54;20034;-69
2022/07/08 11:00:26;;;;;;;6.22;2.08;;;;;;;21.23;37.36;100233.47;2620144;54;20086;-70
2022/07/08 11:03:01;;;;;;;7.05;2.70;;;;;;;21.08;37.17;100227.69;2620482;54;20038;-70
2022/07/08 11:05:39;;;;;;;4.63;2.42;;;;;;;20.94;37.26;100234.25;2620189;39;20407;-70
2022/07/08 11:08:25;;;;;;;5.65;2.03;;;;;;;20.84;37.84;100236.66;2618493;54;20030;-70
2022/07/08 11:10:56;;;;;;;6.07;2.25;;;;;;;21.01;37.84;100227.75;2618122;54;20022;-70
2022/07/08 11:13:27;;;;;;;5.60;2.75;;;;;;;21.13;37.42;100222.44;2618218;54;20042;-69
2022/07/08 11:16:01;;;;;;;5.50;2.60;;;;;;;21.01;36.98;100225.06;2618351;54;20023;-70
2022/07/08 11:18:33;;;;;;;;;;;;;;;20.82;37.83;100220.78;2618558;54;20023;-69
2022/07/08 11:21:04;;;;;;;4.65;2.33;;;;;;;20.97;38.08;100212.31;2621326;54;19946;-70
2022/07/08 11:23:33;;;;;;;4.88;2.80;;;;;;;21.20;37.70;100214.28;2624064;47;20042;-69
2022/07/08 11:26:04;;;;;;;4.68;2.30;;;;;;;21.42;37.40;100211.94;2624872;54;20038;-69
2022/07/08 11:28:37;;;;;;;6.03;2.97;;;;;;;21.45;37.44;100211.47;2624958;39;20503;-70
2022/07/08 11:31:07;;;;;;;2.78;2.10;;;;;;;21.43;37.12;100206.34;2623660;54;20538;-70
2022/07/08 11:33:43;;;;;;;6.03;2.45;;;;;;;21.42;36.50;100211.94;2623464;54;20042;-70
2022/07/08 11:36:18;;;;;;;2.67;2.00;;;;;;;21.24;36.94;100204.72;2621628;54;20090;-70
2022/07/08 11:38:48;;;;;;;4.60;2.25;;;;;;;21.18;37.12;100205.59;2618517;54;20026;-69
2022/07/08 11:41:20;;;;;;;4.75;2.30;;;;;;;21.24;36.48;100202.84;2617738;54;20545;-70
2022/07/08 11:43:52;;;;;;;5.13;2.50;;;;;;;21.32;36.94;100201.72;2618337;54;20562;-69
2022/07/08 11:46:23;;;;;;;4.05;2.33;;;;;;;21.58;36.48;100197.81;2616664;47;20043;-70
2022/07/08 11:48:56;;;;;;;5.05;2.30;;;;;;;21.57;36.36;100201.56;2617468;47;20038;-70
2022/07/08 11:51:25;;;;;;;9.13;2.43;;;;;;;21.66;36.54;100196.66;2617938;54;20039;-70
2022/07/08 11:53:55;;;;;;;4.88;2.50;;;;;;;21.83;36.39;100194.94;2618513;54;20553;-70
2022/07/08 11:56:24;;;;;;;5.20;2.63;;;;;;;22.02;35.65;100193.78;2617861;54;20052;-70
2022/07/08 11:58:54;;;;;;;6.97;2.40;;;;;;;22.05;35.68;100189.81;2618064;54;20033;-70
2022/07/08 12:01:24;;;;;;;3.83;2.40;;;;;;;22.05;35.53;100184.44;2618130;39;20442;-70
2022/07/08 12:03:56;;;;;;;4.88;2.22;;;;;;;22.25;35.26;100176.03;2617822;54;20031;-70
2022/07/08 12:06:27;;;;;;;5.63;2.10;;;;;;;22.24;34.80;100182.44;2618046;54;20033;-69
2022/07/08 12:08:57;;;;;;;5.70;2.55;;;;;;;22.16;34.68;100182.78;2617929;54;20033;-70
2022/07/08 12:11:27;;;;;;;4.78;2.03;;;;;;;22.12;35.06;100185.09;2617437;54;20030;-70
2022/07/08 12:13:56;;;;;;;3.40;2.10;;;;;;;21.98;35.01;100183.72;2617875;54;20069;-70
2022/07/08 12:16:30;;;;;;;4.25;2.28;;;;;;;22.08;35.09;100175.03;2617757;54;20031;-71
2022/07/08 12:19:05;;;;;;;4.68;1.90;;;;;;;22.30;34.84;100172.63;2617361;47;20034;-69
2022/07/08 12:21:35;;;;;;;4.80;2.35;;;;;;;22.45;34.49;100164.84;2618221;54;20523;-70
2022/07/08 12:24:06;;;;;;;3.55;2.03;;;;;;;22.37;33.99;100168.75;2617727;54;20034;-70
2022/07/08 12:26:54;;;;;;;3.50;2.10;;;;;;;22.35;34.12;100161.94;2618484;39;20422;-70
2022/07/08 12:29:24;;;;;;;4.18;2.33;;;;;;;22.41;34.34;100155.59;2618117;54;20042;-71
2022/07/08 12:31:53;;;;;;;5.40;2.60;;;;;;;22.62;34.49;100146.06;2618025;54;20038;-70
2022/07/08 12:34:26;;;;;;;6.30;2.35;;;;;;;22.77;34.14;100148.25;2617174;54;20023;-70
2022/07/08 12:36:56;;;;;;;3.55;2.10;;;;;;;22.89;33.75;100144.44;2617762;54;20038;-70
2022/07/08 12:39:30;;;;;;;8.00;2.63;;;;;;;22.88;33.40;100150.06;2617614;54;20037;-70
2022/07/08 12:42:02;;;;;;;6.43;3.25;;;;;;;22.88;33.61;100144.69;2617975;54;20046;-71
2022/07/08 12:44:39;;;;;;;4.15;2.45;;;;;;;22.90;33.56;100134.47;2617273;54;20049;-70
2022/07/08 12:47:10;;;;;;;4.68;2.55;;;;;;;22.95;32.70;100129.22;2617792;54;20030;-72
2022/07/08 12:49:45;;;;;;;4.60;3.40;;;;;;;22.95;32.00;100123.81;2617733;54;20065;-70
2022/07/08 12:52:17;;;;;;;8.93;5.65;;;;;;;23.01;32.89;100119.34;2617773;54;20026;-70
2022/07/08 12:54:47;;;;;;;7.10;3.10;;;;;;;23.16;32.05;100120.44;2617007;54;20030;-72
2022/07/08 12:57:16;;;;;;;3.40;2.50;;;;;;;23.11;31.96;100123.03;2617543;47;20574;-70
2022/07/08 12:59:46;;;;;;;4.82;2.90;;;;;;;23.21;32.31;100117.00;2616835;47;20029;-70
2022/07/08 13:02:15;;;;;;;4.68;2.70;;;;;;;23.22;31.86;100115.94;2617597;39;20454;-70
2022/07/08 13:04:47;;;;;;;5.53;2.85;;;;;;;23.24;32.34;100122.72;2618243;54;20039;-70
2022/07/08 13:07:17;;;;;;;6.40;3.40;;;;;;;23.38;32.12;100127.81;2618490;54;20034;-70
2022/07/08 13:09:47;;;;;;;4.35;3.17;;;;;;;23.42;31.52;100115.44;2618027;47;20046;-69
2022/07/08 13:12:16;;;;;;;5.65;3.95;;;;;;;23.36;31.91;100116.44;2618429;54;20031;-70
2022/07/08 13:14:46;;;;;;;7.22;4.28;;;;;;;23.47;31.57;100116.38;2618479;54;20542;-70
2022/07/08 13:17:16;;;;;;;4.80;3.65;;;;;;;23.53;31.81;100119.97;2618629;54;20027;-70
2022/07/08 13:19:48;;;;;;;5.50;3.80;;;;;;;23.70;32.24;100115.41;2618442;54;20081;-70
2022/07/08 13:22:18;;;;;;;7.53;3.80;;;;;;;23.91;31.61;100111.09;2618713;54;20126;-68
2022/07/08 13:24:48;;;;;;;4.22;3.83;;;;;;;24.00;30.85;100111.50;2618870;54;20038;-69
2022/07/08 13:27:17;;;;;;;8.55;4.15;;;;;;;23.78;30.96;100122.25;2618133;47;20057;-70
2022/07/08 13:29:47;;;;;;;6.88;3.67;;;;;;;23.79;31.34;100104.19;2618631;54;20553;-70
2022/07/08 13:32:16;;;;;;;5.43;3.88;;;;;;;23.86;30.86;100108.34;2619200;39;20442;-71
2022/07/08 13:34:48;;;;;;;4.68;4.07;;;;;;;23.62;30.94;100110.38;2618727;54;20035;-70
2022/07/08 13:37:35;;;;;;;5.72;4.50;;;;;;;23.70;31.23;100111.88;2619343;39;20437;-70
2022/07/08 13:40:06;;;;;;;7.20;3.67;;;;;;;23.86;31.21;100102.13;2618692;54;20031;-69
2022/07/08 13:42:36;;;;;;;4.40;3.83;;;;;;;23.96;30.77;100102.25;2618158;47;20035;-70
2022/07/08 13:45:07;;;;;;;9.55;4.47;;;;;;;23.88;30.84;100108.09;2619687;54;20046;-71
2022/07/08 13:47:36;;;;;;;5.60;4.25;;;;;;;23.96;30.82;100107.66;2625991;39;20422;-71
2022/07/08 13:50:09;;;;;;;6.25;4.35;;;;;;;24.05;31.41;100094.56;2625788;54;20061;-70
2022/07/08 13:52:39;;;;;;;4.88;3.75;;;;;;;24.31;30.98;100101.91;2626022;54;20577;-70
2022/07/08 13:55:10;;;;;;;8.13;3.58;;;;;;;24.43;30.39;100091.00;2619660;54;20038;-70